sensor_id;sensor_type;location;lat;lon;timestamp;pressure;altitude;pressure_sealevel;temperature;humidity
56006;BME280;41888;44.696;10.522;2023-06-14T00:01:02;99999.69;;;16.46;100.00
56006;BME280;41888;44.696;10.522;2023-06-14T00:03:32;99994.34;;;16.52;100.00
56006;BME280;41888;44.696;10.522;2023-06-14T00:05:58;99993.13;;;16.59;100.00
56006;BME280;41888;44.696;10.522;2023-06-14T00:08:25;99994.66;;;16.55;100.00
56006;BME280;41888;44.696;10.522;2023-06-14T00:10:51;99986.81;;;16.48;100.00
56006;BME280;41888;44.696;10.522;2023-06-14T00:13:18;99985.78;;;16.50;100.00
56006;BME280;41888;44.696;10.522;2023-06-14T00:15:44;99986.88;;;16.54;100.00
56006;BME280;41888;44.696;10.522;2023-06-14T00:18:12;99986.75;;;16.65;100.00
56006;BME280;41888;44.696;10.522;2023-06-14T00:20:38;99992.75;;;16.77;100.00
56006;BME280;41888;44.696;10.522;2023-06-14T00:23:05;99992.81;;;16.87;100.00
56006;BME280;41888;44.696;10.522;2023-06-14T00:25:31;99994.00;;;16.97;100.00
56006;BME280;41888;44.696;10.522;2023-06-14T00:27:58;99979.44;;;16.93;100.00
56006;BME280;41888;44.696;10.522;2023-06-14T00:30:24;99985.66;;;16.98;100.00
56006;BME280;41888;44.696;10.522;2023-06-14T00:32:51;99985.97;;;17.02;100.00
56006;BME280;41888;44.696;10.522;2023-06-14T00:35:17;99979.34;;;17.19;100.00
56006;BME280;41888;44.696;10.522;2023-06-14T00:37:43;99974.44;;;17.06;100.00
56006;BME280;41888;44.696;10.522;2023-06-14T00:40:10;99973.00;;;16.94;100.00
56006;BME280;41888;44.696;10.522;2023-06-14T00:42:36;99959.34;;;17.00;100.00
56006;BME280;41888;44.696;10.522;2023-06-14T00:45:02;99969.09;;;16.74;100.00
56006;BME280;41888;44.696;10.522;2023-06-14T00:47:28;99972.91;;;16.57;100.00
56006;BME280;41888;44.696;10.522;2023-06-14T00:49:55;99966.97;;;16.50;100.00
56006;BME280;41888;44.696;10.522;2023-06-14T00:52:23;99963.72;;;16.47;100.00
56006;BME280;41888;44.696;10.522;2023-06-14T00:54:50;99969.56;;;16.44;100.00
56006;BME280;41888;44.696;10.522;2023-06-14T00:57:17;99963.09;;;16.40;100.00
56006;BME280;41888;44.696;10.522;2023-06-14T00:59:47;99957.44;;;16.37;100.00
56006;BME280;41888;44.696;10.522;2023-06-14T01:02:14;99961.44;;;16.34;100.00
56006;BME280;41888;44.696;10.522;2023-06-14T01:04:41;99958.97;;;16.55;100.00
56006;BME280;41888;44.696;10.522;2023-06-14T01:10:28;99955.81;;;16.63;100.00
56006;BME280;41888;44.696;10.522;2023-06-14T01:13:10;99953.25;;;16.51;100.00
56006;BME280;41888;44.696;10.522;2023-06-14T01:15:37;99953.28;;;16.24;100.00
56006;BME280;41888;44.696;10.522;2023-06-14T01:18:05;99954.34;;;16.23;100.00
56006;BME280;41888;44.696;10.522;2023-06-14T01:20:33;99953.09;;;16.31;100.00
56006;BME280;41888;44.696;10.522;2023-06-14T01:23:02;99949.34;;;16.32;100.00
56006;BME280;41888;44.696;10.522;2023-06-14T01:25:29;99940.56;;;16.15;100.00
56006;BME280;41888;44.696;10.522;2023-06-14T01:28:05;99948.81;;;16.08;100.00
56006;BME280;41888;44.696;10.522;2023-06-14T01:30:38;99937.53;;;16.06;100.00
56006;BME280;41888;44.696;10.522;2023-06-14T01:33:05;99943.34;;;15.98;100.00
56006;BME280;41888;44.696;10.522;2023-06-14T01:35:31;99934.53;;;16.02;100.00
56006;BME280;41888;44.696;10.522;2023-06-14T01:37:58;99932.41;;;16.04;100.00
56006;BME280;41888;44.696;10.522;2023-06-14T01:40:26;99927.34;;;16.08;100.00
56006;BME280;41888;44.696;10.522;2023-06-14T01:42:54;99924.72;;;16.13;100.00
56006;BME280;41888;44.696;10.522;2023-06-14T01:45:20;99920.81;;;15.99;100.00
56006;BME280;41888;44.696;10.522;2023-06-14T01:47:48;99929.25;;;16.13;100.00
56006;BME280;41888;44.696;10.522;2023-06-14T01:50:14;99926.75;;;16.01;100.00
56006;BME280;41888;44.696;10.522;2023-06-14T01:52:40;99924.31;;;15.99;100.00
56006;BME280;41888;44.696;10.522;2023-06-14T01:55:07;99924.59;;;16.03;100.00
56006;BME280;41888;44.696;10.522;2023-06-14T01:57:34;99920.25;;;15.97;100.00
56006;BME280;41888;44.696;10.522;2023-06-14T02:00:00;99916.59;;;16.08;100.00
56006;BME280;41888;44.696;10.522;2023-06-14T02:02:26;99917.19;;;16.10;100.00
56006;BME280;41888;44.696;10.522;2023-06-14T02:04:53;99916.13;;;16.11;100.00
56006;BME280;41888;44.696;10.522;2023-06-14T02:07:23;99913.38;;;16.06;100.00
56006;BME280;41888;44.696;10.522;2023-06-14T02:09:50;99908.25;;;16.04;100.00
56006;BME280;41888;44.696;10.522;2023-06-14T02:12:16;99916.75;;;16.23;100.00
56006;BME280;41888;44.696;10.522;2023-06-14T02:14:42;99907.50;;;16.09;100.00
56006;BME280;41888;44.696;10.522;2023-06-14T02:17:10;99901.72;;;15.95;100.00
56006;BME280;41888;44.696;10.522;2023-06-14T02:19:36;99911.13;;;15.98;100.00
56006;BME280;41888;44.696;10.522;2023-06-14T02:22:02;99911.75;;;16.05;100.00
56006;BME280;41888;44.696;10.522;2023-06-14T02:24:29;99909.31;;;16.03;100.00
56006;BME280;41888;44.696;10.522;2023-06-14T02:26:55;99913.56;;;15.99;100.00
56006;BME280;41888;44.696;10.522;2023-06-14T02:29:21;99908.53;;;15.81;100.00
56006;BME280;41888;44.696;10.522;2023-06-14T02:31:48;99916.41;;;15.88;100.00
56006;BME280;41888;44.696;10.522;2023-06-14T02:34:14;99906.41;;;15.83;100.00
56006;BME280;41888;44.696;10.522;2023-06-14T02:36:42;99911.72;;;15.78;100.00
56006;BME280;41888;44.696;10.522;2023-06-14T02:39:11;99908.19;;;15.73;100.00
56006;BME280;41888;44.696;10.522;2023-06-14T02:41:38;99906.25;;;15.68;100.00
56006;BME280;41888;44.696;10.522;2023-06-14T02:44:04;99906.88;;;15.75;100.00
56006;BME280;41888;44.696;10.522;2023-06-14T02:46:31;99913.66;;;15.83;100.00
56006;BME280;41888;44.696;10.522;2023-06-14T02:48:57;99913.59;;;15.78;100.00
56006;BME280;41888;44.696;10.522;2023-06-14T02:51:23;99906.56;;;15.72;100.00
56006;BME280;41888;44.696;10.522;2023-06-14T02:53:50;99904.16;;;15.70;100.00
56006;BME280;41888;44.696;10.522;2023-06-14T02:56:16;99899.78;;;15.64;100.00
56006;BME280;41888;44.696;10.522;2023-06-14T02:58:43;99904.94;;;15.71;100.00
56006;BME280;41888;44.696;10.522;2023-06-14T03:01:09;99902.94;;;15.61;100.00
56006;BME280;41888;44.696;10.522;2023-06-14T03:03:38;99901.69;;;15.47;100.00
56006;BME280;41888;44.696;10.522;2023-06-14T03:06:05;99904.00;;;15.38;100.00
56006;BME280;41888;44.696;10.522;2023-06-14T03:08:34;99899.69;;;15.37;100.00
56006;BME280;41888;44.696;10.522;2023-06-14T03:11:05;99903.78;;;15.45;100.00
56006;BME280;41888;44.696;10.522;2023-06-14T03:13:31;99891.53;;;15.49;100.00
56006;BME280;41888;44.696;10.522;2023-06-14T03:16:00;99900.28;;;15.44;100.00
56006;BME280;41888;44.696;10.522;2023-06-14T03:18:32;99901.84;;;15.40;100.00
56006;BME280;41888;44.696;10.522;2023-06-14T03:21:02;99909.09;;;15.40;100.00
56006;BME280;41888;44.696;10.522;2023-06-14T03:23:28;99902.44;;;15.42;100.00
56006;BME280;41888;44.696;10.522;2023-06-14T03:25:54;99905.53;;;15.34;100.00
56006;BME280;41888;44.696;10.522;2023-06-14T03:28:21;99906.16;;;15.41;100.00
56006;BME280;41888;44.696;10.522;2023-06-14T03:30:48;99907.28;;;15.45;100.00
56006;BME280;41888;44.696;10.522;2023-06-14T03:33:14;99912.03;;;15.38;100.00
56006;BME280;41888;44.696;10.522;2023-06-14T03:35:41;99900.97;;;15.35;100.00
56006;BME280;41888;44.696;10.522;2023-06-14T03:38:07;99904.47;;;15.35;100.00
56006;BME280;41888;44.696;10.522;2023-06-14T03:40:33;99908.78;;;15.36;100.00
56006;BME280;41888;44.696;10.522;2023-06-14T03:43:00;99917.94;;;15.40;100.00
56006;BME280;41888;44.696;10.522;2023-06-14T03:45:26;99923.31;;;15.40;100.00
56006;BME280;41888;44.696;10.522;2023-06-14T03:47:52;99912.50;;;15.35;100.00
56006;BME280;41888;44.696;10.522;2023-06-14T03:50:18;99911.69;;;15.35;100.00
56006;BME280;41888;44.696;10.522;2023-06-14T03:52:46;99918.00;;;15.45;100.00
56006;BME280;41888;44.696;10.522;2023-06-14T03:55:14;99921.06;;;15.32;100.00
56006;BME280;41888;44.696;10.522;2023-06-14T03:57:42;99927.53;;;15.36;100.00
56006;BME280;41888;44.696;10.522;2023-06-14T04:00:09;99922.63;;;15.50;100.00
56006;BME280;41888;44.696;10.522;2023-06-14T04:02:35;99930.50;;;15.56;100.00
56006;BME280;41888;44.696;10.522;2023-06-14T04:05:03;99929.53;;;15.62;100.00
56006;BME280;41888;44.696;10.522;2023-06-14T04:07:29;99935.50;;;15.70;100.00
56006;BME280;41888;44.696;10.522;2023-06-14T04:09:56;99933.88;;;15.69;100.00
56006;BME280;41888;44.696;10.522;2023-06-14T04:12:22;99928.28;;;15.70;100.00
56006;BME280;41888;44.696;10.522;2023-06-14T04:14:48;99928.81;;;15.72;100.00
56006;BME280;41888;44.696;10.522;2023-06-14T04:17:14;99929.13;;;15.76;100.00
56006;BME280;41888;44.696;10.522;2023-06-14T04:19:40;99933.19;;;15.78;100.00
56006;BME280;41888;44.696;10.522;2023-06-14T04:22:06;99929.81;;;15.88;100.00
56006;BME280;41888;44.696;10.522;2023-06-14T04:24:33;99938.47;;;15.95;100.00
56006;BME280;41888;44.696;10.522;2023-06-14T04:27:00;99940.31;;;16.16;100.00
56006;BME280;41888;44.696;10.522;2023-06-14T04:29:30;99943.34;;;16.25;100.00
56006;BME280;41888;44.696;10.522;2023-06-14T04:31:58;99948.81;;;16.35;100.00
56006;BME280;41888;44.696;10.522;2023-06-14T04:34:28;99955.56;;;16.37;100.00
56006;BME280;41888;44.696;10.522;2023-06-14T04:36:58;99955.53;;;16.32;100.00
56006;BME280;41888;44.696;10.522;2023-06-14T04:39:26;99955.81;;;16.36;100.00
56006;BME280;41888;44.696;10.522;2023-06-14T04:41:53;99956.00;;;16.56;100.00
56006;BME280;41888;44.696;10.522;2023-06-14T04:44:23;99960.22;;;16.74;100.00
56006;BME280;41888;44.696;10.522;2023-06-14T04:46:56;99963.13;;;17.04;100.00
56006;BME280;41888;44.696;10.522;2023-06-14T04:49:24;99967.03;;;17.23;100.00
56006;BME280;41888;44.696;10.522;2023-06-14T04:51:52;99961.25;;;17.47;100.00
56006;BME280;41888;44.696;10.522;2023-06-14T04:54:25;99969.72;;;17.65;100.00
56006;BME280;41888;44.696;10.522;2023-06-14T04:56:51;99966.31;;;17.90;100.00
56006;BME280;41888;44.696;10.522;2023-06-14T04:59:19;99969.03;;;18.00;100.00
56006;BME280;41888;44.696;10.522;2023-06-14T05:01:45;99963.63;;;17.90;100.00
56006;BME280;41888;44.696;10.522;2023-06-14T05:04:18;99964.06;;;17.72;100.00
56006;BME280;41888;44.696;10.522;2023-06-14T05:06:45;99962.47;;;17.71;100.00
56006;BME280;41888;44.696;10.522;2023-06-14T05:09:14;99974.03;;;17.71;100.00
56006;BME280;41888;44.696;10.522;2023-06-14T05:11:42;99975.88;;;17.66;100.00
56006;BME280;41888;44.696;10.522;2023-06-14T05:14:13;99975.94;;;17.71;100.00
56006;BME280;41888;44.696;10.522;2023-06-14T05:16:39;99976.19;;;17.69;100.00
56006;BME280;41888;44.696;10.522;2023-06-14T05:19:06;99981.81;;;17.68;100.00
56006;BME280;41888;44.696;10.522;2023-06-14T05:21:32;99975.69;;;17.83;100.00
56006;BME280;41888;44.696;10.522;2023-06-14T05:24:00;99976.63;;;18.13;100.00
56006;BME280;41888;44.696;10.522;2023-06-14T05:26:27;99976.66;;;18.19;100.00
56006;BME280;41888;44.696;10.522;2023-06-14T05:28:57;99970.47;;;18.28;100.00
56006;BME280;41888;44.696;10.522;2023-06-14T05:31:24;99971.31;;;18.44;100.00
56006;BME280;41888;44.696;10.522;2023-06-14T05:33:52;99971.91;;;18.61;100.00
56006;BME280;41888;44.696;10.522;2023-06-14T05:36:19;99975.38;;;18.67;100.00
56006;BME280;41888;44.696;10.522;2023-06-14T05:38:45;99975.13;;;18.68;100.00
56006;BME280;41888;44.696;10.522;2023-06-14T05:41:12;99967.56;;;18.95;100.00
56006;BME280;41888;44.696;10.522;2023-06-14T05:43:38;99972.13;;;19.15;100.00
56006;BME280;41888;44.696;10.522;2023-06-14T05:46:05;99978.31;;;19.26;100.00
56006;BME280;41888;44.696;10.522;2023-06-14T05:48:31;99978.31;;;19.31;100.00
56006;BME280;41888;44.696;10.522;2023-06-14T05:50:58;99978.03;;;19.37;100.00
56006;BME280;41888;44.696;10.522;2023-06-14T05:53:24;99981.50;;;19.58;100.00
56006;BME280;41888;44.696;10.522;2023-06-14T05:55:51;99971.22;;;19.75;100.00
56006;BME280;41888;44.696;10.522;2023-06-14T05:58:21;99968.56;;;19.60;100.00
56006;BME280;41888;44.696;10.522;2023-06-14T06:00:47;99976.13;;;19.58;100.00
56006;BME280;41888;44.696;10.522;2023-06-14T06:03:14;99971.44;;;19.79;100.00
56006;BME280;41888;44.696;10.522;2023-06-14T06:05:40;99974.66;;;20.45;100.00
56006;BME280;41888;44.696;10.522;2023-06-14T06:08:06;99979.53;;;20.43;100.00
56006;BME280;41888;44.696;10.522;2023-06-14T06:10:32;99985.03;;;20.23;100.00
56006;BME280;41888;44.696;10.522;2023-06-14T06:12:58;99985.63;;;20.10;100.00
56006;BME280;41888;44.696;10.522;2023-06-14T06:15:25;99984.69;;;19.75;100.00
56006;BME280;41888;44.696;10.522;2023-06-14T06:17:51;99997.66;;;19.68;100.00
56006;BME280;41888;44.696;10.522;2023-06-14T06:20:17;99989.63;;;19.43;100.00
56006;BME280;41888;44.696;10.522;2023-06-14T06:22:44;99994.22;;;19.42;100.00
56006;BME280;41888;44.696;10.522;2023-06-14T06:25:10;99989.09;;;19.46;100.00
56006;BME280;41888;44.696;10.522;2023-06-14T06:27:36;99985.00;;;19.64;100.00
56006;BME280;41888;44.696;10.522;2023-06-14T06:30:04;99987.41;;;19.75;100.00
56006;BME280;41888;44.696;10.522;2023-06-14T06:32:31;99982.94;;;20.05;100.00
56006;BME280;41888;44.696;10.522;2023-06-14T06:34:57;99987.50;;;20.14;100.00
56006;BME280;41888;44.696;10.522;2023-06-14T06:37:25;99987.34;;;19.91;100.00
56006;BME280;41888;44.696;10.522;2023-06-14T06:39:51;99991.84;;;20.05;100.00
56006;BME280;41888;44.696;10.522;2023-06-14T06:42:18;99995.88;;;20.13;100.00
56006;BME280;41888;44.696;10.522;2023-06-14T06:44:44;99994.09;;;20.47;100.00
56006;BME280;41888;44.696;10.522;2023-06-14T06:47:10;100007.91;;;20.80;100.00
56006;BME280;41888;44.696;10.522;2023-06-14T06:49:37;100008.72;;;20.80;100.00
56006;BME280;41888;44.696;10.522;2023-06-14T06:52:07;100012.72;;;20.88;100.00
56006;BME280;41888;44.696;10.522;2023-06-14T06:54:34;100014.84;;;20.91;100.00
56006;BME280;41888;44.696;10.522;2023-06-14T06:57:00;100012.78;;;20.83;100.00
56006;BME280;41888;44.696;10.522;2023-06-14T06:59:30;100018.72;;;20.80;100.00
56006;BME280;41888;44.696;10.522;2023-06-14T07:01:56;100010.88;;;20.78;100.00
56006;BME280;41888;44.696;10.522;2023-06-14T07:04:22;100019.69;;;20.94;100.00
56006;BME280;41888;44.696;10.522;2023-06-14T07:06:48;100015.34;;;20.98;100.00
56006;BME280;41888;44.696;10.522;2023-06-14T07:09:15;100016.03;;;21.14;100.00
56006;BME280;41888;44.696;10.522;2023-06-14T07:11:42;100015.69;;;21.25;100.00
56006;BME280;41888;44.696;10.522;2023-06-14T07:14:09;100023.66;;;21.06;100.00
56006;BME280;41888;44.696;10.522;2023-06-14T07:16:35;100030.63;;;21.18;100.00
56006;BME280;41888;44.696;10.522;2023-06-14T07:19:04;100024.06;;;20.90;100.00
56006;BME280;41888;44.696;10.522;2023-06-14T07:21:31;100027.25;;;20.97;100.00
56006;BME280;41888;44.696;10.522;2023-06-14T07:23:57;100028.91;;;20.93;100.00
56006;BME280;41888;44.696;10.522;2023-06-14T07:26:23;100036.44;;;20.96;100.00
56006;BME280;41888;44.696;10.522;2023-06-14T07:28:50;100037.09;;;20.83;100.00
56006;BME280;41888;44.696;10.522;2023-06-14T07:31:16;100033.31;;;20.79;100.00
56006;BME280;41888;44.696;10.522;2023-06-14T07:33:44;100036.50;;;20.91;100.00
56006;BME280;41888;44.696;10.522;2023-06-14T07:36:10;100045.06;;;21.03;100.00
56006;BME280;41888;44.696;10.522;2023-06-14T07:38:37;100041.47;;;21.13;100.00
56006;BME280;41888;44.696;10.522;2023-06-14T07:41:03;100042.16;;;21.28;100.00
56006;BME280;41888;44.696;10.522;2023-06-14T07:43:29;100041.59;;;21.31;100.00
56006;BME280;41888;44.696;10.522;2023-06-14T07:45:56;100044.25;;;21.36;100.00
56006;BME280;41888;44.696;10.522;2023-06-14T07:48:23;100041.75;;;21.45;100.00
56006;BME280;41888;44.696;10.522;2023-06-14T07:50:49;100046.44;;;21.34;100.00
56006;BME280;41888;44.696;10.522;2023-06-14T07:53:15;100047.34;;;21.25;100.00
56006;BME280;41888;44.696;10.522;2023-06-14T07:55:41;100047.03;;;21.26;100.00
56006;BME280;41888;44.696;10.522;2023-06-14T07:58:09;100049.69;;;20.97;100.00
56006;BME280;41888;44.696;10.522;2023-06-14T08:00:36;100050.63;;;20.83;100.00
56006;BME280;41888;44.696;10.522;2023-06-14T08:03:02;100049.00;;;20.82;100.00
56006;BME280;41888;44.696;10.522;2023-06-14T08:05:30;100054.69;;;21.19;100.00
56006;BME280;41888;44.696;10.522;2023-06-14T08:07:56;100053.03;;;21.23;100.00
56006;BME280;41888;44.696;10.522;2023-06-14T08:10:23;100061.16;;;21.23;100.00
56006;BME280;41888;44.696;10.522;2023-06-14T08:12:49;100053.38;;;21.45;100.00
56006;BME280;41888;44.696;10.522;2023-06-14T08:15:18;100059.59;;;21.12;100.00
56006;BME280;41888;44.696;10.522;2023-06-14T08:17:44;100057.72;;;21.46;100.00
56006;BME280;41888;44.696;10.522;2023-06-14T08:20:11;100063.50;;;21.87;100.00
56006;BME280;41888;44.696;10.522;2023-06-14T08:22:38;100061.34;;;21.84;100.00
56006;BME280;41888;44.696;10.522;2023-06-14T08:25:05;100060.31;;;21.80;100.00
56006;BME280;41888;44.696;10.522;2023-06-14T08:27:33;100069.00;;;22.06;100.00
56006;BME280;41888;44.696;10.522;2023-06-14T08:29:59;100075.84;;;22.22;100.00
56006;BME280;41888;44.696;10.522;2023-06-14T08:32:25;100075.50;;;22.29;100.00
56006;BME280;41888;44.696;10.522;2023-06-14T08:34:52;100077.31;;;22.33;100.00
56006;BME280;41888;44.696;10.522;2023-06-14T08:37:18;100074.94;;;22.51;100.00
56006;BME280;41888;44.696;10.522;2023-06-14T08:39:44;100074.69;;;22.71;100.00
56006;BME280;41888;44.696;10.522;2023-06-14T08:42:11;100081.34;;;22.97;100.00
56006;BME280;41888;44.696;10.522;2023-06-14T08:44:38;100077.66;;;22.51;100.00
56006;BME280;41888;44.696;10.522;2023-06-14T08:47:07;100085.81;;;22.27;100.00
56006;BME280;41888;44.696;10.522;2023-06-14T08:49:34;100080.97;;;22.00;100.00
56006;BME280;41888;44.696;10.522;2023-06-14T08:52:02;100084.63;;;22.14;100.00
56006;BME280;41888;44.696;10.522;2023-06-14T08:54:30;100087.63;;;22.31;100.00
56006;BME280;41888;44.696;10.522;2023-06-14T08:56:58;100086.34;;;22.48;100.00
56006;BME280;41888;44.696;10.522;2023-06-14T08:59:28;100088.97;;;22.77;100.00
56006;BME280;41888;44.696;10.522;2023-06-14T09:01:55;100083.88;;;22.51;100.00
56006;BME280;41888;44.696;10.522;2023-06-14T09:04:21;100088.63;;;22.59;100.00
56006;BME280;41888;44.696;10.522;2023-06-14T09:06:48;100093.16;;;22.88;100.00
56006;BME280;41888;44.696;10.522;2023-06-14T09:09:20;100089.75;;;22.96;100.00
56006;BME280;41888;44.696;10.522;2023-06-14T09:11:52;100102.59;;;22.71;100.00
56006;BME280;41888;44.696;10.522;2023-06-14T09:14:24;100119.69;;;22.72;100.00
56006;BME280;41888;44.696;10.522;2023-06-14T09:16:54;100091.19;;;22.93;100.00
56006;BME280;41888;44.696;10.522;2023-06-14T09:19:24;100083.44;;;23.00;100.00
56006;BME280;41888;44.696;10.522;2023-06-14T09:21:50;100077.91;;;23.10;100.00
56006;BME280;41888;44.696;10.522;2023-06-14T09:24:19;100080.03;;;23.27;100.00
56006;BME280;41888;44.696;10.522;2023-06-14T09:26:48;100088.66;;;23.48;100.00
56006;BME280;41888;44.696;10.522;2023-06-14T09:29:20;100087.22;;;23.37;100.00
56006;BME280;41888;44.696;10.522;2023-06-14T09:31:47;100084.66;;;22.94;100.00
56006;BME280;41888;44.696;10.522;2023-06-14T09:34:13;100079.31;;;23.22;100.00
56006;BME280;41888;44.696;10.522;2023-06-14T09:36:42;100088.34;;;23.17;100.00
56006;BME280;41888;44.696;10.522;2023-06-14T09:39:08;100086.00;;;23.75;100.00
56006;BME280;41888;44.696;10.522;2023-06-14T09:41:36;100087.44;;;24.14;100.00
56006;BME280;41888;44.696;10.522;2023-06-14T09:44:07;100093.00;;;24.36;100.00
56006;BME280;41888;44.696;10.522;2023-06-14T09:46:34;100091.06;;;23.82;100.00
56006;BME280;41888;44.696;10.522;2023-06-14T09:49:02;100086.00;;;23.75;100.00
56006;BME280;41888;44.696;10.522;2023-06-14T09:51:29;100097.44;;;23.58;100.00
56006;BME280;41888;44.696;10.522;2023-06-14T09:54:03;100092.09;;;23.53;100.00
56006;BME280;41888;44.696;10.522;2023-06-14T09:56:40;100087.34;;;23.78;100.00
56006;BME280;41888;44.696;10.522;2023-06-14T09:59:09;100091.66;;;24.06;100.00
56006;BME280;41888;44.696;10.522;2023-06-14T10:01:40;100089.00;;;24.20;100.00
56006;BME280;41888;44.696;10.522;2023-06-14T10:04:09;100089.63;;;23.71;100.00
56006;BME280;41888;44.696;10.522;2023-06-14T10:06:41;100087.91;;;23.61;100.00
56006;BME280;41888;44.696;10.522;2023-06-14T10:09:09;100083.28;;;23.75;100.00
56006;BME280;41888;44.696;10.522;2023-06-14T10:11:37;100083.91;;;23.72;100.00
56006;BME280;41888;44.696;10.522;2023-06-14T10:14:10;100066.50;;;24.14;100.00
56006;BME280;41888;44.696;10.522;2023-06-14T10:17:04;100068.59;;;23.63;100.00
56006;BME280;41888;44.696;10.522;2023-06-14T10:19:48;100072.13;;;23.90;100.00
56006;BME280;41888;44.696;10.522;2023-06-14T10:22:29;100075.56;;;24.10;100.00
56006;BME280;41888;44.696;10.522;2023-06-14T10:24:57;100067.66;;;24.27;100.00
56006;BME280;41888;44.696;10.522;2023-06-14T10:27:23;100065.63;;;24.05;100.00
56006;BME280;41888;44.696;10.522;2023-06-14T10:32:21;100061.44;;;24.62;100.00
56006;BME280;41888;44.696;10.522;2023-06-14T10:35:01;100056.69;;;24.68;100.00
56006;BME280;41888;44.696;10.522;2023-06-14T10:37:27;100058.16;;;24.74;100.00
56006;BME280;41888;44.696;10.522;2023-06-14T10:39:53;100050.31;;;24.36;100.00
56006;BME280;41888;44.696;10.522;2023-06-14T10:42:20;100053.09;;;24.45;100.00
56006;BME280;41888;44.696;10.522;2023-06-14T10:44:58;100050.31;;;24.23;100.00
56006;BME280;41888;44.696;10.522;2023-06-14T10:47:36;100055.53;;;24.33;100.00
56006;BME280;41888;44.696;10.522;2023-06-14T10:50:12;100049.72;;;24.26;100.00
56006;BME280;41888;44.696;10.522;2023-06-14T10:52:44;100052.13;;;24.27;100.00
56006;BME280;41888;44.696;10.522;2023-06-14T10:57:43;100047.03;;;24.48;100.00
56006;BME280;41888;44.696;10.522;2023-06-14T11:00:10;100045.28;;;24.30;100.00
56006;BME280;41888;44.696;10.522;2023-06-14T11:05:55;100031.03;;;24.82;100.00
56006;BME280;41888;44.696;10.522;2023-06-14T11:11:07;100032.34;;;25.07;100.00
56006;BME280;41888;44.696;10.522;2023-06-14T11:13:34;100034.75;;;25.09;100.00
56006;BME280;41888;44.696;10.522;2023-06-14T11:16:00;100030.94;;;25.10;100.00
56006;BME280;41888;44.696;10.522;2023-06-14T11:18:28;100040.47;;;24.99;100.00
56006;BME280;41888;44.696;10.522;2023-06-14T11:20:54;100028.41;;;24.77;100.00
56006;BME280;41888;44.696;10.522;2023-06-14T11:23:21;100018.81;;;24.94;100.00
56006;BME280;41888;44.696;10.522;2023-06-14T11:25:52;100023.31;;;24.98;100.00
56006;BME280;41888;44.696;10.522;2023-06-14T11:28:18;100024.38;;;24.89;99.66
56006;BME280;41888;44.696;10.522;2023-06-14T11:30:59;100014.97;;;24.95;100.00
56006;BME280;41888;44.696;10.522;2023-06-14T11:33:25;100005.72;;;25.27;100.00
56006;BME280;41888;44.696;10.522;2023-06-14T11:35:52;100015.13;;;25.51;100.00
56006;BME280;41888;44.696;10.522;2023-06-14T11:38:18;100021.84;;;25.45;97.31
56006;BME280;41888;44.696;10.522;2023-06-14T11:40:44;100011.13;;;24.96;100.00
56006;BME280;41888;44.696;10.522;2023-06-14T11:43:10;100020.94;;;24.83;100.00
56006;BME280;41888;44.696;10.522;2023-06-14T11:45:38;100013.13;;;24.46;100.00
56006;BME280;41888;44.696;10.522;2023-06-14T11:48:05;100007.50;;;25.00;100.00
56006;BME280;41888;44.696;10.522;2023-06-14T11:50:32;100014.44;;;25.68;94.99
56006;BME280;41888;44.696;10.522;2023-06-14T11:53:02;100006.34;;;25.94;95.58
56006;BME280;41888;44.696;10.522;2023-06-14T11:55:39;100005.00;;;26.22;97.79
56006;BME280;41888;44.696;10.522;2023-06-14T11:58:07;100003.59;;;25.54;100.00
56006;BME280;41888;44.696;10.522;2023-06-14T12:00:36;100001.75;;;25.33;100.00
56006;BME280;41888;44.696;10.522;2023-06-14T12:03:03;99999.06;;;25.41;99.81
56006;BME280;41888;44.696;10.522;2023-06-14T12:05:29;99990.50;;;25.56;100.00
56006;BME280;41888;44.696;10.522;2023-06-14T12:08:00;99991.25;;;25.48;100.00
56006;BME280;41888;44.696;10.522;2023-06-14T12:10:27;99994.34;;;25.55;100.00
56006;BME280;41888;44.696;10.522;2023-06-14T12:13:00;99995.44;;;25.54;100.00
56006;BME280;41888;44.696;10.522;2023-06-14T12:15:28;99990.25;;;25.44;100.00
56006;BME280;41888;44.696;10.522;2023-06-14T12:17:58;99983.81;;;24.87;100.00
56006;BME280;41888;44.696;10.522;2023-06-14T12:20:29;99979.88;;;24.71;100.00
56006;BME280;41888;44.696;10.522;2023-06-14T12:23:02;99975.59;;;24.56;100.00
56006;BME280;41888;44.696;10.522;2023-06-14T12:25:35;99966.41;;;24.66;100.00
56006;BME280;41888;44.696;10.522;2023-06-14T12:28:09;99967.81;;;24.86;100.00
56006;BME280;41888;44.696;10.522;2023-06-14T12:30:38;99972.66;;;25.50;100.00
56006;BME280;41888;44.696;10.522;2023-06-14T12:33:05;99970.06;;;25.06;100.00
56006;BME280;41888;44.696;10.522;2023-06-14T12:35:32;99972.81;;;25.45;100.00
56006;BME280;41888;44.696;10.522;2023-06-14T12:37:58;99974.19;;;25.34;100.00
56006;BME280;41888;44.696;10.522;2023-06-14T12:40:24;99974.59;;;25.19;100.00
56006;BME280;41888;44.696;10.522;2023-06-14T12:42:50;99975.78;;;25.27;100.00
56006;BME280;41888;44.696;10.522;2023-06-14T12:45:17;99972.84;;;25.23;100.00
56006;BME280;41888;44.696;10.522;2023-06-14T12:47:43;99973.63;;;25.15;100.00
56006;BME280;41888;44.696;10.522;2023-06-14T12:50:09;99971.94;;;25.58;100.00
56006;BME280;41888;44.696;10.522;2023-06-14T12:52:35;99968.88;;;25.60;100.00